createdAt,value
2019-06-07T00:02:08.290Z,14.50
2019-06-07T00:06:44.120Z,14.40
2019-06-07T00:11:20.653Z,14.50
2019-06-07T00:15:56.880Z,14.20
2019-06-07T00:20:32.692Z,14.20
2019-06-07T00:25:12.183Z,14.30
2019-06-07T00:29:46.176Z,14.30
2019-06-07T00:34:23.133Z,13.90
2019-06-07T00:38:59.464Z,14.00
2019-06-07T00:43:35.296Z,13.80
2019-06-07T00:48:19.664Z,13.80
2019-06-07T00:57:26.120Z,13.80
2019-06-07T01:02:02.066Z,13.80
2019-06-07T01:06:37.948Z,13.40
2019-06-07T01:11:13.721Z,13.30
2019-06-07T01:15:50.072Z,13.20
2019-06-07T01:20:26.807Z,13.40
2019-06-07T01:25:02.925Z,13.40
2019-06-07T01:29:38.716Z,13.20
2019-06-07T01:34:14.571Z,13.30
2019-06-07T01:38:50.400Z,13.40
2019-06-07T01:43:27.071Z,13.00
2019-06-07T01:48:03.812Z,13.10
2019-06-07T01:52:39.613Z,13.30
2019-06-07T01:57:36.704Z,13.30
2019-06-07T02:01:54.014Z,13.30
2019-06-07T02:06:32.219Z,13.20
2019-06-07T02:11:07.280Z,13.30
2019-06-07T02:15:43.068Z,13.20
2019-06-07T02:20:20.342Z,13.10
2019-06-07T02:25:34.634Z,13.10
2019-06-07T02:29:34.358Z,13.10
2019-06-07T02:34:10.594Z,12.70
2019-06-07T02:38:46.406Z,12.80
2019-06-07T02:43:22.196Z,12.90
2019-06-07T02:47:58.064Z,13.00
2019-06-07T02:52:39.895Z,12.90
2019-06-07T02:57:11.407Z,12.60
2019-06-07T03:01:47.612Z,12.80
2019-06-07T03:06:27.140Z,12.80
2019-06-07T03:11:03.080Z,12.80
2019-06-07T03:15:49.598Z,12.80
2019-06-07T03:20:19.410Z,12.30
2019-06-07T03:24:56.685Z,12.70
2019-06-07T03:29:34.414Z,12.60
2019-06-07T03:34:10.227Z,12.60
2019-06-07T03:38:46.003Z,12.50
2019-06-07T03:43:21.801Z,12.70
2019-06-07T03:47:57.578Z,12.20
2019-06-07T03:52:37.100Z,12.60
2019-06-07T03:57:10.850Z,12.30
2019-06-07T04:01:46.651Z,12.50
2019-06-07T04:06:22.548Z,12.70
2019-06-07T04:11:00.735Z,12.60
2019-06-07T04:15:40.843Z,12.70
2019-06-07T04:20:14.834Z,12.70
2019-06-07T04:24:50.611Z,12.60
2019-06-07T04:29:54.591Z,12.20
2019-06-07T04:34:03.907Z,12.40
2019-06-07T04:38:42.623Z,12.20
2019-06-07T04:43:18.865Z,12.10
2019-06-07T04:47:56.417Z,12.30
2019-06-07T04:52:35.844Z,12.30
2019-06-07T04:57:10.204Z,12.10
2019-06-07T05:01:45.984Z,12.50
2019-06-07T05:06:21.788Z,12.60
2019-06-07T05:10:57.593Z,12.70
2019-06-07T05:15:34.621Z,12.70
2019-06-07T05:20:11.499Z,12.80
2019-06-07T05:24:47.362Z,12.60
2019-06-07T05:29:23.175Z,12.40
2019-06-07T05:33:59.044Z,12.60
2019-06-07T05:38:36.083Z,12.80
2019-06-07T05:43:26.127Z,12.80
2019-06-07T05:48:02.731Z,12.40
2019-06-07T05:52:42.448Z,12.80
2019-06-07T05:57:16.312Z,12.70
2019-06-07T06:02:02.095Z,12.80
2019-06-07T06:06:29.609Z,13.10
2019-06-07T06:11:05.469Z,13.30
2019-06-07T06:15:54.400Z,13.40
2019-06-07T06:20:19.364Z,13.50
2019-06-07T06:25:30.024Z,13.50
2019-06-07T06:29:32.968Z,13.70
2019-06-07T06:34:08.789Z,13.90
2019-06-07T06:38:47.176Z,13.90
2019-06-07T06:43:22.069Z,13.90
2019-06-07T06:47:57.871Z,13.80
2019-06-07T06:52:33.653Z,13.80
2019-06-07T06:57:19.554Z,13.90
2019-06-07T07:01:49.444Z,14.10
2019-06-07T07:06:26.914Z,14.20
2019-06-07T07:11:02.912Z,14.30
2019-06-07T07:15:38.821Z,14.40
2019-06-07T07:20:14.961Z,14.50
2019-06-07T07:24:53.400Z,14.60
2019-06-07T07:29:28.270Z,14.80
2019-06-07T07:38:41.551Z,15.30
2019-06-07T07:43:17.354Z,15.50
2019-06-07T07:48:08.174Z,15.60
2019-06-07T07:52:30.645Z,15.90
2019-06-07T07:57:06.801Z,16.10
2019-06-07T08:01:42.610Z,16.30
2019-06-07T08:06:18.386Z,16.60
2019-06-07T08:10:58.067Z,17.10
2019-06-07T08:15:31.662Z,17.80
2019-06-07T08:20:07.707Z,18.20
2019-06-07T08:24:43.517Z,19.00
